createdAt,value
2022-09-03T00:01:41.189Z,15.80
2022-09-03T00:04:22.372Z,15.70
2022-09-03T00:07:01.826Z,15.80
2022-09-03T00:09:35.391Z,15.70
2022-09-03T00:12:10.562Z,15.80
2022-09-03T00:14:42.820Z,16.00
2022-09-03T00:17:14.971Z,16.20
2022-09-03T00:19:48.095Z,16.40
2022-09-03T00:22:20.143Z,16.60
2022-09-03T00:24:53.859Z,16.60
2022-09-03T00:27:27.005Z,16.60
2022-09-03T00:30:03.419Z,16.50
2022-09-03T00:32:43.556Z,16.00
2022-09-03T00:35:18.098Z,16.00
2022-09-03T00:37:46.302Z,16.00
2022-09-03T00:40:30.241Z,16.40
2022-09-03T00:43:09.257Z,16.10
2022-09-03T00:45:46.206Z,15.80
2022-09-03T00:48:28.347Z,15.70
2022-09-03T00:51:17.922Z,15.80
2022-09-03T00:53:57.115Z,15.50
2022-09-03T00:56:36.489Z,15.50
2022-09-03T00:59:15.153Z,15.40
2022-09-03T01:01:51.201Z,15.40
2022-09-03T01:04:41.758Z,15.10
2022-09-03T01:07:18.485Z,15.10
2022-09-03T01:09:56.485Z,15.20
2022-09-03T01:12:36.058Z,15.30
2022-09-03T01:15:13.646Z,15.20
2022-09-03T01:17:53.195Z,15.10
2022-09-03T01:20:47.086Z,15.30
2022-09-03T01:23:44.137Z,15.10
2022-09-03T01:26:37.514Z,14.80
2022-09-03T01:29:15.617Z,14.80
2022-09-03T01:31:51.850Z,14.90
2022-09-03T01:34:36.049Z,15.00
2022-09-03T01:37:16.729Z,15.00
2022-09-03T01:39:57.122Z,15.00
2022-09-03T01:42:34.591Z,14.80
2022-09-03T01:45:22.720Z,14.70
2022-09-03T01:48:06.209Z,14.90
2022-09-03T01:50:44.263Z,14.90
2022-09-03T01:53:25.639Z,15.10
2022-09-03T01:56:09.972Z,15.00
2022-09-03T01:58:44.150Z,15.00
2022-09-03T02:01:20.805Z,14.90
2022-09-03T02:03:52.432Z,14.70
2022-09-03T02:06:20.912Z,14.60
2022-09-03T02:08:49.269Z,14.60
2022-09-03T02:11:17.634Z,14.70
2022-09-03T02:13:49.393Z,14.90
2022-09-03T02:16:22.620Z,14.90
2022-09-03T02:18:53.984Z,14.70
2022-09-03T02:21:24.647Z,14.80
2022-09-03T02:23:53.739Z,14.70
2022-09-03T02:26:24.813Z,14.80
2022-09-03T02:28:55.489Z,15.10
2022-09-03T02:31:25.357Z,15.20
2022-09-03T02:33:53.585Z,15.20
2022-09-03T02:36:27.704Z,15.20
2022-09-03T02:38:56.099Z,15.20
2022-09-03T02:41:26.457Z,15.30
2022-09-03T02:44:01.557Z,15.40
2022-09-03T02:46:36.019Z,15.40
2022-09-03T02:49:04.462Z,15.30
2022-09-03T02:51:36.761Z,15.40
2022-09-03T02:54:05.885Z,15.40
2022-09-03T02:56:34.315Z,15.30
2022-09-03T02:59:03.714Z,15.30
2022-09-03T03:01:33.689Z,15.40
2022-09-03T03:04:02.051Z,15.50
2022-09-03T03:06:30.236Z,15.50
2022-09-03T03:08:59.074Z,15.40
2022-09-03T03:11:27.408Z,15.30
2022-09-03T03:13:58.504Z,15.40
2022-09-03T03:16:27.128Z,15.40
2022-09-03T03:19:00.260Z,15.50
2022-09-03T03:21:28.855Z,15.60
2022-09-03T03:23:57.186Z,15.80
2022-09-03T03:26:25.544Z,15.70
2022-09-03T03:28:58.508Z,15.70
2022-09-03T03:31:27.667Z,15.50
2022-09-03T03:33:58.868Z,15.50
2022-09-03T03:36:29.531Z,15.70
2022-09-03T03:38:59.082Z,15.90
2022-09-03T03:41:31.386Z,15.90
2022-09-03T03:44:01.688Z,15.90
2022-09-03T03:46:32.219Z,15.90
2022-09-03T03:49:02.856Z,15.90
2022-09-03T03:51:32.634Z,15.90
2022-09-03T03:54:04.846Z,16.00
2022-09-03T03:56:34.166Z,16.00
2022-09-03T03:59:02.631Z,16.00
2022-09-03T04:01:31.793Z,16.30
2022-09-03T04:04:05.656Z,16.40
2022-09-03T04:06:34.042Z,16.40
2022-09-03T04:09:02.302Z,16.50
2022-09-03T04:11:30.479Z,16.70
2022-09-03T04:13:58.796Z,17.00
2022-09-03T04:16:28.407Z,17.10
2022-09-03T04:18:57.883Z,17.00
2022-09-03T04:21:31.734Z,16.80
2022-09-03T04:24:00.169Z,16.50
2022-09-03T04:26:31.898Z,16.10
2022-09-03T04:29:01.041Z,16.10
2022-09-03T04:31:29.936Z,16.40
2022-09-03T04:33:57.512Z,16.50
2022-09-03T04:36:28.035Z,16.60
2022-09-03T04:39:00.555Z,16.70
2022-09-03T04:41:30.599Z,16.90
2022-09-03T04:44:00.360Z,16.80
2022-09-03T04:46:33.163Z,16.90
2022-09-03T04:49:02.397Z,17.00
2022-09-03T04:51:31.614Z,17.20
2022-09-03T04:54:02.785Z,17.10
2022-09-03T04:56:33.879Z,17.20
2022-09-03T04:59:04.017Z,17.10
2022-09-03T05:01:34.522Z,17.10
2022-09-03T05:04:03.587Z,17.20
2022-09-03T05:06:33.145Z,17.30
2022-09-03T05:09:02.901Z,17.40
2022-09-03T05:11:31.446Z,17.30
2022-09-03T05:14:00.819Z,17.30
2022-09-03T05:16:30.997Z,17.20
2022-09-03T05:19:03.713Z,17.30
2022-09-03T05:21:31.899Z,17.20
2022-09-03T05:24:03.003Z,17.20
2022-09-03T05:26:37.292Z,17.30
2022-09-03T05:29:08.920Z,17.40
2022-09-03T05:31:40.848Z,17.60
2022-09-03T05:34:10.196Z,17.70
2022-09-03T05:36:46.302Z,17.60
2022-09-03T05:39:15.903Z,17.60
2022-09-03T05:41:44.267Z,17.50
2022-09-03T05:44:12.444Z,17.50
2022-09-03T05:46:40.569Z,17.60
2022-09-03T05:49:09.123Z,17.80
2022-09-03T05:51:39.488Z,17.70
2022-09-03T05:54:08.596Z,17.70
2022-09-03T05:56:41.266Z,17.70
2022-09-03T05:59:11.124Z,17.70
2022-09-03T06:01:50.672Z,17.70
2022-09-03T06:04:20.906Z,17.70
2022-09-03T06:06:49.961Z,17.70
2022-09-03T06:09:20.303Z,17.60
2022-09-03T06:14:23.021Z,17.20
2022-09-03T06:16:53.280Z,17.10
2022-09-03T06:19:22.123Z,17.10
2022-09-03T06:21:50.634Z,17.00
2022-09-03T06:24:23.158Z,17.00
2022-09-03T06:26:59.450Z,16.80
2022-09-03T06:29:33.735Z,16.70
2022-09-03T06:32:05.082Z,16.50
2022-09-03T06:34:33.321Z,16.50
2022-09-03T06:37:01.663Z,16.50
2022-09-03T06:39:30.825Z,16.40
2022-09-03T06:42:00.814Z,16.20
2022-09-03T06:44:36.516Z,16.00
2022-09-03T06:47:04.658Z,15.60
2022-09-03T06:49:32.886Z,15.50
2022-09-03T06:52:01.072Z,15.60
2022-09-03T06:54:29.470Z,15.80
2022-09-03T06:56:58.656Z,16.00
2022-09-03T06:59:29.051Z,16.10
2022-09-03T07:01:58.868Z,16.10
2022-09-03T07:04:27.558Z,15.80
2022-09-03T07:06:57.342Z,15.90
2022-09-03T07:09:25.651Z,15.70
2022-09-03T07:11:54.112Z,15.70
2022-09-03T07:14:23.296Z,15.70
2022-09-03T07:16:53.186Z,15.80
2022-09-03T07:19:21.891Z,15.90
2022-09-03T07:21:51.009Z,16.00
2022-09-03T07:24:21.921Z,16.10
2022-09-03T07:26:50.589Z,16.10
2022-09-03T07:29:21.600Z,16.10
2022-09-03T07:31:52.605Z,15.80
2022-09-03T07:34:26.688Z,15.70
2022-09-03T07:36:55.231Z,15.60
2022-09-03T07:39:23.522Z,15.50
2022-09-03T07:41:51.856Z,15.20
2022-09-03T07:44:20.789Z,15.30
2022-09-03T07:46:51.149Z,15.30
2022-09-03T07:49:22.015Z,15.30
2022-09-03T07:51:54.238Z,15.30
2022-09-03T07:54:24.114Z,15.40
2022-09-03T07:56:52.536Z,15.50
2022-09-03T07:59:23.031Z,15.60
2022-09-03T08:01:52.269Z,15.70
2022-09-03T08:04:22.113Z,15.70
2022-09-03T08:06:55.501Z,15.70
2022-09-03T08:09:23.977Z,15.60
2022-09-03T08:11:52.257Z,15.60
2022-09-03T08:14:20.447Z,15.90
2022-09-03T08:16:48.921Z,16.00
2022-09-03T08:19:18.298Z,15.90
2022-09-03T08:21:47.146Z,16.10
2022-09-03T08:24:21.009Z,16.50
2022-09-03T08:26:52.051Z,17.00
2022-09-03T08:29:21.498Z,17.00
2022-09-03T08:31:49.937Z,17.30
2022-09-03T08:34:18.359Z,17.50
2022-09-03T08:36:47.558Z,17.40
2022-09-03T08:39:18.294Z,17.50
2022-09-03T08:42:20.912Z,17.70
2022-09-03T08:44:54.946Z,17.50
2022-09-03T08:47:26.039Z,17.20
2022-09-03T08:49:59.566Z,17.20
2022-09-03T08:52:33.263Z,17.40
2022-09-03T08:55:15.338Z,17.50
2022-09-03T08:57:48.198Z,17.50
2022-09-03T09:00:17.227Z,17.60
2022-09-03T09:03:03.235Z,17.50
2022-09-03T09:05:44.427Z,17.40
2022-09-03T09:08:21.435Z,17.50
2022-09-03T09:11:00.975Z,17.50
2022-09-03T09:13:47.527Z,17.40
2022-09-03T09:16:54.765Z,17.40
2022-09-03T09:19:39.363Z,17.40
2022-09-03T09:22:16.527Z,17.40
2022-09-03T09:24:47.627Z,17.40
2022-09-03T09:27:30.093Z,17.40
2022-09-03T09:30:06.464Z,17.50
2022-09-03T09:32:34.951Z,17.60
2022-09-03T09:35:03.298Z,17.70
2022-09-03T09:37:31.547Z,17.60
2022-09-03T09:40:02.529Z,17.60
2022-09-03T09:42:33.804Z,17.50
2022-09-03T09:45:13.292Z,17.70
2022-09-03T09:47:50.421Z,18.30
2022-09-03T09:50:25.303Z,18.30
2022-09-03T09:55:33.162Z,18.70
2022-09-03T09:58:14.478Z,18.60
2022-09-03T10:01:04.856Z,18.50
2022-09-03T10:03:36.847Z,18.50
2022-09-03T10:06:27.854Z,18.60
2022-09-03T10:09:07.483Z,18.80
2022-09-03T10:11:40.567Z,19.00
2022-09-03T10:14:19.724Z,19.10
2022-09-03T10:16:56.085Z,18.80
2022-09-03T10:19:37.392Z,18.60
2022-09-03T10:22:12.475Z,19.10
2022-09-03T10:24:53.638Z,19.10
2022-09-03T10:27:22.370Z,18.90
2022-09-03T10:29:52.067Z,19.10
2022-09-03T10:32:38.955Z,19.40
2022-09-03T10:35:19.256Z,19.50
2022-09-03T10:37:56.453Z,19.70
2022-09-03T10:40:32.152Z,19.70
2022-09-03T10:43:24.538Z,19.70
2022-09-03T10:46:03.314Z,19.20
2022-09-03T10:48:47.138Z,19.50
2022-09-03T10:51:20.406Z,19.60
2022-09-03T10:54:22.606Z,19.80
2022-09-03T10:57:04.512Z,20.00
2022-09-03T10:59:45.368Z,19.90
2022-09-03T11:02:39.669Z,20.10
2022-09-03T11:05:16.286Z,20.40
2022-09-03T11:07:49.525Z,20.40
2022-09-03T11:10:25.019Z,20.30
2022-09-03T11:13:07.155Z,20.10
2022-09-03T11:15:40.928Z,19.80
2022-09-03T11:18:20.028Z,19.80
2022-09-03T11:20:50.695Z,19.70
2022-09-03T11:23:20.763Z,20.10
2022-09-03T11:25:53.183Z,20.10
2022-09-03T11:28:35.518Z,20.30
2022-09-03T11:31:23.883Z,20.50
2022-09-03T11:34:01.486Z,20.50
2022-09-03T11:36:32.684Z,20.60
2022-09-03T11:39:02.725Z,20.60
2022-09-03T11:41:36.459Z,20.30
2022-09-03T11:44:18.822Z,20.40
2022-09-03T11:46:59.370Z,20.50
2022-09-03T11:49:32.136Z,20.80
2022-09-03T11:52:02.488Z,21.20
2022-09-03T11:54:34.466Z,21.30
2022-09-03T11:57:13.183Z,21.60
2022-09-03T11:59:43.168Z,22.10
2022-09-03T12:02:24.357Z,22.30
2022-09-03T12:05:16.017Z,22.10
2022-09-03T12:08:04.141Z,21.30
2022-09-03T12:10:50.643Z,20.80
2022-09-03T12:13:40.438Z,21.30
2022-09-03T12:16:32.198Z,21.30
2022-09-03T12:19:10.215Z,21.20
2022-09-03T12:21:42.570Z,21.50
2022-09-03T12:24:14.550Z,21.60
2022-09-03T12:26:44.399Z,21.90
2022-09-03T12:29:27.977Z,22.20
2022-09-03T12:31:57.838Z,22.00
2022-09-03T12:34:27.477Z,22.10
2022-09-03T12:36:57.184Z,22.30
2022-09-03T12:42:22.566Z,22.60
2022-09-03T12:44:50.748Z,22.60
2022-09-03T12:47:38.010Z,22.70
2022-09-03T12:50:11.266Z,22.80
2022-09-03T12:52:45.097Z,23.00
2022-09-03T12:55:28.165Z,22.90
2022-09-03T12:58:03.649Z,23.00
2022-09-03T13:00:39.094Z,22.90
2022-09-03T13:03:12.681Z,23.20
2022-09-03T13:05:47.189Z,23.20
2022-09-03T13:08:23.575Z,23.10
2022-09-03T13:10:56.011Z,23.20
2022-09-03T13:13:32.173Z,23.60
2022-09-03T13:16:24.681Z,23.60
2022-09-03T13:19:02.616Z,23.30
2022-09-03T13:21:43.773Z,23.20
2022-09-03T13:24:41.167Z,23.20
2022-09-03T13:27:20.389Z,22.90
2022-09-03T13:30:12.373Z,22.80
2022-09-03T13:32:51.892Z,22.90
2022-09-03T13:35:29.028Z,22.90
2022-09-03T13:38:04.717Z,23.10
2022-09-03T13:40:38.922Z,23.00
2022-09-03T13:43:23.028Z,22.90
2022-09-03T13:45:57.354Z,22.70
2022-09-03T13:48:51.989Z,22.70
2022-09-03T13:51:27.195Z,22.50
2022-09-03T13:54:06.842Z,22.40
2022-09-03T13:56:52.177Z,22.40
2022-09-03T13:59:30.014Z,22.50
2022-09-03T14:02:21.638Z,22.40
2022-09-03T14:05:05.572Z,22.60
2022-09-03T14:07:52.496Z,22.60
2022-09-03T14:10:25.705Z,22.40
2022-09-03T14:13:08.211Z,22.60
2022-09-03T14:15:45.686Z,22.70
2022-09-03T14:18:35.674Z,22.70
2022-09-03T14:21:09.270Z,22.80
2022-09-03T14:23:45.850Z,22.90
2022-09-03T14:26:27.113Z,22.90
2022-09-03T14:29:18.038Z,23.20
2022-09-03T14:32:18.373Z,23.10
2022-09-03T14:35:02.976Z,23.10
2022-09-03T14:37:46.003Z,23.10
2022-09-03T14:40:18.060Z,23.30
2022-09-03T14:43:06.783Z,23.30
2022-09-03T14:46:05.775Z,23.30
2022-09-03T14:49:02.041Z,23.20
2022-09-03T14:51:46.051Z,23.10
2022-09-03T14:54:37.711Z,22.80
2022-09-03T14:57:20.627Z,22.70
2022-09-03T15:00:08.610Z,22.70
2022-09-03T15:03:03.238Z,22.80
2022-09-03T15:05:49.724Z,22.80
2022-09-03T15:08:46.412Z,22.90
2022-09-03T15:11:18.682Z,22.90
2022-09-03T15:13:52.816Z,23.00
2022-09-03T15:16:35.902Z,23.10
2022-09-03T15:19:19.710Z,23.10
2022-09-03T15:22:03.750Z,23.10
2022-09-03T15:24:44.140Z,23.00
2022-09-03T15:27:34.556Z,23.30
2022-09-03T15:30:08.045Z,23.20
2022-09-03T15:32:51.707Z,23.10
2022-09-03T15:35:38.178Z,22.90
2022-09-03T15:38:11.499Z,22.90
2022-09-03T15:40:50.091Z,22.80
2022-09-03T15:43:22.480Z,22.80
2022-09-03T15:45:58.378Z,22.80
2022-09-03T15:48:36.967Z,22.60
2022-09-03T15:51:17.302Z,22.40
2022-09-03T15:53:53.486Z,22.30
2022-09-03T15:56:28.855Z,22.40
2022-09-03T15:59:03.845Z,22.40
2022-09-03T16:01:41.594Z,22.40
2022-09-03T16:04:24.935Z,22.40
2022-09-03T16:07:00.808Z,22.40
2022-09-03T16:09:44.638Z,22.40
2022-09-03T16:12:24.958Z,22.40
2022-09-03T16:15:00.028Z,22.40
2022-09-03T16:17:33.479Z,22.30
2022-09-03T16:20:07.216Z,22.30
2022-09-03T16:22:45.282Z,22.30
2022-09-03T16:25:18.049Z,22.40
2022-09-03T16:28:10.169Z,22.30
2022-09-03T16:30:53.986Z,22.20
2022-09-03T16:33:31.384Z,21.80
2022-09-03T16:36:04.953Z,21.50
2022-09-03T16:38:46.801Z,21.10
2022-09-03T16:41:24.640Z,21.10
2022-09-03T16:44:02.663Z,20.80
2022-09-03T16:46:36.955Z,20.50
2022-09-03T16:49:23.413Z,20.40
2022-09-03T16:51:56.092Z,20.20
2022-09-03T16:54:55.862Z,20.30
2022-09-03T16:57:44.164Z,20.30
2022-09-03T17:00:16.410Z,20.10
2022-09-03T17:03:26.165Z,20.00
2022-09-03T17:06:24.487Z,19.90
2022-09-03T17:09:03.893Z,19.90
2022-09-03T17:11:56.167Z,20.00
2022-09-03T17:14:54.773Z,20.10
2022-09-03T17:17:37.839Z,20.10
2022-09-03T17:20:14.258Z,20.30
2022-09-03T17:22:53.442Z,20.30
2022-09-03T17:25:30.796Z,20.30
2022-09-03T17:28:24.985Z,20.20
2022-09-03T17:30:58.562Z,20.10
2022-09-03T17:33:58.221Z,20.20
2022-09-03T17:36:31.481Z,20.30
2022-09-03T17:39:34.910Z,20.30
2022-09-03T17:42:06.893Z,20.20
2022-09-03T17:44:46.729Z,20.10
2022-09-03T17:47:38.828Z,20.00
2022-09-03T17:50:15.898Z,20.00
2022-09-03T17:52:48.635Z,20.00
2022-09-03T17:55:30.846Z,20.20
2022-09-03T17:58:14.454Z,20.20
2022-09-03T18:00:56.201Z,20.00
2022-09-03T18:03:30.162Z,19.90
2022-09-03T18:06:02.013Z,19.70
2022-09-03T18:08:37.664Z,19.70
2022-09-03T18:11:11.468Z,19.80
2022-09-03T18:13:47.977Z,19.90
2022-09-03T18:16:23.710Z,20.10
2022-09-03T18:18:59.006Z,20.20
2022-09-03T18:21:47.375Z,20.20
2022-09-03T18:24:46.023Z,20.30
2022-09-03T18:27:41.833Z,20.60
2022-09-03T18:30:34.967Z,20.00
2022-09-03T18:38:59.711Z,19.50
2022-09-03T18:42:12.354Z,19.60
2022-09-03T18:45:22.192Z,19.60
2022-09-03T18:48:30.314Z,19.50
2022-09-03T18:51:26.942Z,19.40
2022-09-03T18:54:25.652Z,19.30
2022-09-03T18:57:12.768Z,19.30
2022-09-03T19:00:14.020Z,19.40
2022-09-03T19:03:11.207Z,19.40
2022-09-03T19:06:09.016Z,19.20
2022-09-03T19:09:02.531Z,19.00
2022-09-03T19:11:55.693Z,19.10
2022-09-03T19:14:54.437Z,19.10
2022-09-03T19:17:50.044Z,19.00
2022-09-03T19:20:42.854Z,19.10
2022-09-03T19:23:30.438Z,19.30
2022-09-03T19:26:23.270Z,19.70
2022-09-03T19:29:15.445Z,19.90
2022-09-03T19:32:12.290Z,19.90
2022-09-03T19:35:17.848Z,19.60
2022-09-03T19:38:19.410Z,19.40
2022-09-03T19:41:25.657Z,18.50
2022-09-03T19:44:28.933Z,18.20
2022-09-03T19:47:17.806Z,18.20
2022-09-03T19:50:18.621Z,17.90
2022-09-03T19:53:11.702Z,17.90
2022-09-03T19:56:06.631Z,17.70
2022-09-03T19:59:01.713Z,17.70
2022-09-03T20:01:52.502Z,17.70
2022-09-03T20:04:41.560Z,17.80
2022-09-03T20:07:29.085Z,17.70
2022-09-03T20:10:18.563Z,17.70
2022-09-03T20:12:50.467Z,17.70
2022-09-03T20:15:25.906Z,17.50
2022-09-03T20:18:02.775Z,17.40
2022-09-03T20:20:38.142Z,17.40
2022-09-03T20:23:17.008Z,17.40
2022-09-03T20:25:54.518Z,17.30
2022-09-03T20:28:39.753Z,17.30
2022-09-03T20:31:15.754Z,17.30
2022-09-03T20:34:02.726Z,17.40
2022-09-03T20:36:39.862Z,17.30
2022-09-03T20:39:30.403Z,17.20
2022-09-03T20:42:16.194Z,17.10
2022-09-03T20:45:05.903Z,17.20
2022-09-03T20:48:09.659Z,17.20
2022-09-03T20:50:53.230Z,17.10
2022-09-03T20:53:55.648Z,17.00
2022-09-03T20:56:29.109Z,16.90
2022-09-03T20:59:04.829Z,16.80
2022-09-03T21:01:41.075Z,16.50
2022-09-03T21:04:28.827Z,16.40
2022-09-03T21:07:09.685Z,16.40
2022-09-03T21:09:49.342Z,16.40
2022-09-03T21:12:29.395Z,16.40
2022-09-03T21:15:04.560Z,16.40
2022-09-03T21:17:47.033Z,16.50
2022-09-03T21:20:23.645Z,16.50
2022-09-03T21:23:04.522Z,16.60
2022-09-03T21:25:36.478Z,16.50
2022-09-03T21:28:09.659Z,16.50
2022-09-03T21:30:41.825Z,16.40
2022-09-03T21:33:17.049Z,16.40
2022-09-03T21:35:52.650Z,16.30
2022-09-03T21:38:25.070Z,16.40
2022-09-03T21:40:59.979Z,16.30
2022-09-03T21:43:35.949Z,16.40
2022-09-03T21:46:09.872Z,16.40
2022-09-03T21:48:44.160Z,16.50
2022-09-03T21:51:21.173Z,16.50
2022-09-03T21:53:53.523Z,16.40
2022-09-03T21:56:41.221Z,16.10
2022-09-03T21:59:20.435Z,16.10
2022-09-03T22:01:59.054Z,16.00
2022-09-03T22:04:27.636Z,16.10
2022-09-03T22:07:04.954Z,16.10
2022-09-03T22:09:39.344Z,16.20
2022-09-03T22:12:14.804Z,16.20
2022-09-03T22:14:46.342Z,16.10
2022-09-03T22:17:23.016Z,16.10
2022-09-03T22:19:51.577Z,16.10
2022-09-03T22:22:29.852Z,16.10
2022-09-03T22:25:05.003Z,16.20
2022-09-03T22:27:39.716Z,16.20
2022-09-03T22:30:12.051Z,16.20
2022-09-03T22:32:51.099Z,16.10
2022-09-03T22:35:46.511Z,16.00
2022-09-03T22:38:42.083Z,16.00
2022-09-03T22:41:25.514Z,16.00
2022-09-03T22:44:03.413Z,16.00
2022-09-03T22:46:41.634Z,15.90
2022-09-03T22:49:32.815Z,15.80
2022-09-03T22:52:23.843Z,15.90
2022-09-03T22:55:15.265Z,16.00
2022-09-03T22:57:55.188Z,16.00
2022-09-03T23:00:23.452Z,15.90
2022-09-03T23:02:59.673Z,15.90
2022-09-03T23:05:40.924Z,15.80
2022-09-03T23:08:12.879Z,15.70
2022-09-03T23:11:02.650Z,15.60
2022-09-03T23:13:35.958Z,15.70
2022-09-03T23:16:10.653Z,15.70
2022-09-03T23:18:44.658Z,15.70
2022-09-03T23:21:25.491Z,15.70
2022-09-03T23:23:59.346Z,15.60
2022-09-03T23:26:38.470Z,15.60
2022-09-03T23:29:13.205Z,15.50
2022-09-03T23:31:41.482Z,15.40
2022-09-03T23:34:11.323Z,15.40
2022-09-03T23:37:32.936Z,15.40
2022-09-03T23:40:13.342Z,15.40
2022-09-03T23:42:55.965Z,15.30
2022-09-03T23:45:33.166Z,15.20
2022-09-03T23:48:08.283Z,15.20
2022-09-03T23:50:44.796Z,14.90
2022-09-03T23:53:28.470Z,14.90
2022-09-03T23:56:20.081Z,14.80
2022-09-03T23:59:05.631Z,14.80
